createdAt,value
2023-03-01T00:01:23.818Z,99.90
2023-03-01T00:06:26.424Z,99.90
2023-03-01T00:11:32.853Z,99.90
2023-03-01T00:16:43.068Z,99.90
2023-03-01T00:21:48.341Z,99.90
2023-03-01T00:26:53.785Z,99.90
2023-03-01T00:31:55.544Z,99.90
2023-03-01T00:37:08.365Z,99.90
2023-03-01T00:42:11.259Z,99.90
2023-03-01T00:47:13.117Z,99.90
2023-03-01T00:52:15.132Z,99.90
2023-03-01T00:57:16.892Z,99.90
2023-03-01T01:02:19.692Z,99.90
2023-03-01T01:07:21.724Z,99.90
2023-03-01T01:12:23.402Z,99.90
2023-03-01T01:17:25.792Z,99.90
2023-03-01T01:22:37.171Z,99.90
2023-03-01T01:27:38.934Z,99.90
2023-03-01T01:32:41.197Z,99.90
2023-03-01T01:37:42.941Z,99.90
2023-03-01T01:42:44.719Z,99.90
2023-03-01T01:47:49.641Z,99.90
2023-03-01T01:52:53.668Z,99.90
2023-03-01T01:58:00.469Z,99.90
2023-03-01T02:03:06.864Z,99.90
2023-03-01T02:08:11.417Z,99.90
2023-03-01T02:13:13.991Z,99.90
2023-03-01T02:18:19.711Z,99.90
2023-03-01T02:23:21.574Z,99.90
2023-03-01T02:28:35.780Z,99.90
2023-03-01T02:33:39.448Z,99.90
2023-03-01T02:38:44.670Z,99.90
2023-03-01T02:43:47.162Z,99.90
2023-03-01T02:48:54.925Z,99.90
2023-03-01T02:54:09.320Z,99.90
2023-03-01T02:59:12.847Z,99.90
2023-03-01T03:04:18.005Z,99.90
2023-03-01T03:09:20.565Z,99.90
2023-03-01T03:14:22.492Z,99.90
2023-03-01T03:19:24.608Z,99.90
2023-03-01T03:24:26.408Z,99.90
2023-03-01T03:29:28.149Z,99.90
2023-03-01T03:34:30.269Z,99.90
2023-03-01T03:39:35.752Z,99.90
2023-03-01T03:44:38.733Z,99.90
2023-03-01T03:49:40.588Z,99.90
2023-03-01T03:54:42.442Z,99.90
2023-03-01T03:59:44.162Z,99.90
2023-03-01T04:04:46.171Z,99.90
2023-03-01T04:09:47.872Z,99.90
2023-03-01T04:14:50.353Z,99.90
2023-03-01T04:19:52.241Z,99.90
2023-03-01T04:24:53.984Z,99.90
2023-03-01T04:29:55.731Z,99.90
2023-03-01T04:34:57.441Z,99.90
2023-03-01T04:39:59.802Z,99.90
2023-03-01T04:45:02.097Z,99.90
2023-03-01T04:50:04.797Z,99.90
2023-03-01T04:55:07.573Z,99.90
2023-03-01T05:00:21.156Z,99.90
2023-03-01T05:05:28.530Z,99.90
2023-03-01T05:10:31.940Z,99.90
2023-03-01T05:15:34.303Z,99.90
2023-03-01T05:20:37.433Z,99.90
2023-03-01T05:25:41.190Z,99.90
2023-03-01T05:30:43.046Z,99.90
2023-03-01T05:35:46.966Z,99.90
2023-03-01T05:40:49.520Z,99.90
2023-03-01T05:45:51.494Z,99.90
2023-03-01T05:50:53.479Z,99.90
2023-03-01T05:55:55.269Z,99.90
2023-03-01T06:00:57.767Z,99.90
2023-03-01T06:06:00.122Z,99.90
2023-03-01T06:11:02.550Z,99.90
2023-03-01T06:16:08.235Z,99.90
2023-03-01T06:21:10.691Z,99.90
2023-03-01T06:26:12.489Z,99.90
2023-03-01T06:31:14.383Z,99.90
2023-03-01T06:36:20.193Z,99.90
2023-03-01T06:41:22.230Z,99.90
2023-03-01T06:46:24.292Z,99.90
2023-03-01T06:51:27.392Z,99.90
2023-03-01T06:56:29.353Z,99.90
2023-03-01T07:01:33.323Z,99.90
2023-03-01T07:06:35.607Z,99.90
2023-03-01T07:11:37.451Z,99.90
2023-03-01T07:16:39.416Z,99.90
2023-03-01T07:21:41.470Z,99.90
2023-03-01T07:26:43.444Z,99.90
2023-03-01T07:31:45.732Z,99.90
2023-03-01T07:36:50.963Z,99.90
2023-03-01T07:41:53.373Z,99.90
2023-03-01T07:46:57.616Z,99.90
2023-03-01T07:51:59.610Z,99.90
2023-03-01T07:57:01.429Z,99.90
2023-03-01T08:02:03.438Z,99.90
2023-03-01T08:07:06.880Z,99.90
2023-03-01T08:12:08.856Z,99.90
2023-03-01T08:17:10.689Z,99.70
2023-03-01T08:22:12.802Z,99.40
2023-03-01T08:27:16.959Z,99.90
2023-03-01T08:32:19.092Z,99.90
2023-03-01T08:37:21.017Z,99.20
2023-03-01T08:42:22.782Z,98.50
2023-03-01T08:47:24.874Z,98.00
2023-03-01T08:52:27.080Z,97.70
2023-03-01T08:57:28.914Z,98.00
2023-03-01T09:02:31.084Z,98.50
2023-03-01T09:07:33.078Z,97.30
2023-03-01T09:12:35.192Z,96.40
2023-03-01T09:17:37.249Z,96.70
2023-03-01T09:22:38.934Z,96.00
2023-03-01T09:27:41.025Z,94.90
2023-03-01T09:32:43.792Z,95.60
2023-03-01T09:37:46.434Z,94.90
2023-03-01T09:43:15.019Z,94.00
2023-03-01T09:48:24.474Z,94.20
2023-03-01T09:53:37.610Z,94.10
2023-03-01T09:58:40.915Z,94.40
2023-03-01T10:04:06.170Z,93.40
2023-03-01T10:09:18.976Z,93.90
2023-03-01T10:14:58.491Z,92.40
2023-03-01T10:20:20.489Z,91.90
2023-03-01T10:25:45.621Z,92.90
2023-03-01T10:30:47.672Z,92.60
2023-03-01T10:35:49.907Z,92.10
2023-03-01T10:41:02.630Z,92.30
2023-03-01T10:46:22.905Z,91.80
2023-03-01T10:51:24.782Z,92.50
2023-03-01T10:56:26.772Z,92.30
2023-03-01T11:01:35.981Z,92.00
2023-03-01T11:06:40.100Z,90.60
2023-03-01T11:11:42.313Z,90.50
2023-03-01T11:16:46.938Z,87.20
2023-03-01T11:21:57.059Z,84.10
2023-03-01T11:27:04.802Z,84.40
2023-03-01T11:32:11.240Z,85.30
2023-03-01T11:37:38.138Z,83.30
2023-03-01T11:43:15.978Z,81.60
2023-03-01T11:49:02.803Z,79.70
2023-03-01T11:54:13.903Z,78.70
2023-03-01T11:59:43.120Z,80.20
2023-03-01T12:05:08.146Z,76.30
2023-03-01T12:10:27.663Z,74.30
2023-03-01T12:15:47.299Z,74.10
2023-03-01T12:21:07.962Z,72.10
2023-03-01T12:26:20.601Z,72.10
2023-03-01T12:31:29.400Z,72.70
2023-03-01T12:36:43.125Z,72.60
2023-03-01T12:42:12.792Z,71.10
2023-03-01T12:47:47.207Z,71.60
2023-03-01T12:52:53.417Z,73.00
2023-03-01T12:58:28.342Z,77.10
2023-03-01T13:03:56.584Z,76.40
2023-03-01T13:09:10.163Z,78.60
2023-03-01T13:14:24.301Z,78.70
2023-03-01T13:19:30.240Z,75.70
2023-03-01T13:24:40.625Z,73.10
2023-03-01T13:29:45.612Z,73.30
2023-03-01T13:34:50.205Z,72.20
2023-03-01T13:39:52.643Z,70.00
2023-03-01T13:44:54.532Z,67.10
2023-03-01T13:50:05.289Z,66.50
2023-03-01T13:55:15.376Z,65.50
2023-03-01T14:00:36.515Z,62.70
2023-03-01T14:05:39.576Z,61.70
2023-03-01T14:11:08.063Z,63.00
2023-03-01T14:16:56.044Z,62.90
2023-03-01T14:22:30.801Z,62.10
2023-03-01T14:27:43.148Z,63.10
2023-03-01T14:32:57.660Z,61.50
2023-03-01T14:37:59.639Z,57.40
2023-03-01T14:43:09.681Z,54.40
2023-03-01T14:48:13.736Z,54.40
2023-03-01T14:53:25.747Z,53.10
2023-03-01T14:58:27.865Z,55.00
2023-03-01T15:03:39.354Z,58.00
2023-03-01T15:08:48.135Z,63.00
2023-03-01T15:13:50.601Z,65.30
2023-03-01T15:18:59.923Z,65.30
2023-03-01T15:24:20.993Z,69.40
2023-03-01T15:29:31.111Z,69.90
2023-03-01T15:34:38.833Z,71.50
2023-03-01T15:39:44.462Z,73.80
2023-03-01T15:44:46.652Z,74.50
2023-03-01T15:49:54.935Z,75.00
2023-03-01T15:55:03.187Z,74.30
2023-03-01T16:00:12.586Z,75.50
2023-03-01T16:05:27.324Z,75.90
2023-03-01T16:10:29.877Z,76.10
2023-03-01T16:15:39.100Z,76.60
2023-03-01T16:20:41.235Z,77.00
2023-03-01T16:25:43.100Z,76.90
2023-03-01T16:30:49.222Z,78.30
2023-03-01T16:35:51.705Z,79.40
2023-03-01T16:40:53.760Z,80.20
2023-03-01T16:45:55.845Z,81.00
2023-03-01T16:50:59.146Z,82.10
2023-03-01T16:56:02.165Z,83.00
2023-03-01T17:01:07.212Z,83.20
2023-03-01T17:06:17.575Z,83.40
2023-03-01T17:11:20.973Z,84.80
2023-03-01T17:16:23.483Z,86.20
2023-03-01T17:21:26.724Z,88.10
2023-03-01T17:26:32.498Z,88.00
2023-03-01T17:31:34.894Z,90.40
2023-03-01T17:36:43.978Z,90.60
2023-03-01T17:41:45.819Z,90.80
2023-03-01T17:46:47.844Z,90.90
2023-03-01T17:51:49.569Z,91.10
2023-03-01T17:56:52.195Z,91.30
2023-03-01T18:01:54.076Z,92.10
2023-03-01T18:06:56.210Z,92.40
2023-03-01T18:11:58.835Z,92.70
2023-03-01T18:17:04.443Z,93.00
2023-03-01T18:22:06.639Z,93.30
2023-03-01T18:27:08.997Z,93.50
2023-03-01T18:32:10.832Z,93.60
2023-03-01T18:37:12.794Z,94.00
2023-03-01T18:42:16.659Z,94.50
2023-03-01T18:47:18.611Z,94.50
2023-03-01T18:52:20.407Z,94.70
2023-03-01T18:57:22.256Z,94.90
2023-03-01T19:02:24.320Z,95.10
2023-03-01T19:07:26.122Z,95.40
2023-03-01T19:12:28.597Z,95.70
2023-03-01T19:17:31.478Z,95.90
2023-03-01T19:22:33.391Z,96.00
2023-03-01T19:27:35.567Z,96.20
2023-03-01T19:32:37.291Z,96.40
2023-03-01T19:37:39.311Z,96.70
2023-03-01T19:42:41.144Z,97.00
2023-03-01T19:47:47.668Z,96.90
2023-03-01T19:52:49.938Z,97.30
2023-03-01T19:57:51.690Z,97.20
2023-03-01T20:02:53.547Z,97.50
2023-03-01T20:07:57.569Z,97.80
2023-03-01T20:13:02.001Z,97.90
2023-03-01T20:18:04.441Z,98.40
2023-03-01T20:23:06.642Z,98.40
2023-03-01T20:28:08.507Z,98.50
2023-03-01T20:33:11.404Z,98.80
2023-03-01T20:38:13.449Z,98.80
2023-03-01T20:43:15.368Z,99.20
2023-03-01T20:48:17.819Z,98.90
2023-03-01T20:53:19.817Z,99.50
2023-03-01T20:58:21.565Z,99.50
2023-03-01T21:03:23.423Z,99.30
2023-03-01T21:08:25.926Z,99.50
2023-03-01T21:13:28.867Z,99.80
2023-03-01T21:18:32.594Z,99.90
2023-03-01T21:23:36.203Z,99.90
2023-03-01T21:28:39.168Z,99.90
2023-03-01T21:33:45.576Z,99.90
2023-03-01T21:38:49.399Z,99.90
2023-03-01T21:43:53.676Z,99.90
2023-03-01T21:48:56.720Z,99.90
2023-03-01T21:54:01.375Z,99.90
2023-03-01T21:59:03.829Z,99.90
2023-03-01T22:04:06.242Z,99.90
2023-03-01T22:09:20.197Z,99.70
2023-03-01T22:14:22.641Z,99.90
2023-03-01T22:19:24.822Z,99.90
2023-03-01T22:29:30.917Z,99.90
2023-03-01T22:34:32.758Z,99.90
2023-03-01T22:39:34.582Z,99.90
2023-03-01T22:44:36.445Z,99.90
2023-03-01T22:49:38.353Z,99.90
2023-03-01T22:54:40.296Z,99.90
2023-03-01T22:59:42.158Z,99.90
2023-03-01T23:04:44.526Z,99.90
2023-03-01T23:09:46.425Z,99.90
2023-03-01T23:14:48.209Z,99.90
2023-03-01T23:19:51.410Z,99.90
2023-03-01T23:24:53.337Z,99.90
2023-03-01T23:29:55.412Z,99.90
2023-03-01T23:34:57.490Z,99.90
2023-03-01T23:39:59.575Z,99.90
2023-03-01T23:45:01.464Z,99.90
2023-03-01T23:50:03.511Z,99.90
2023-03-01T23:55:09.114Z,99.90
